createdAt,value
2022-12-03T00:01:08.193Z,5.88
2022-12-03T00:03:37.628Z,6.35
2022-12-03T00:06:06.647Z,6.40
2022-12-03T00:08:35.265Z,8.05
2022-12-03T00:11:04.311Z,6.80
2022-12-03T00:13:32.834Z,7.60
2022-12-03T00:16:01.813Z,7.37
2022-12-03T00:18:30.781Z,8.40
2022-12-03T00:20:59.576Z,7.25
2022-12-03T00:23:28.186Z,6.63
2022-12-03T00:25:56.970Z,6.47
2022-12-03T00:28:25.646Z,7.60
2022-12-03T00:30:55.074Z,6.43
2022-12-03T00:33:26.629Z,8.05
2022-12-03T00:35:55.668Z,10.82
2022-12-03T00:38:24.369Z,9.98
2022-12-03T00:40:53.366Z,10.03
2022-12-03T00:43:21.942Z,11.18
2022-12-03T00:45:50.938Z,9.90
2022-12-03T00:48:20.373Z,10.88
2022-12-03T00:50:49.433Z,9.43
2022-12-03T00:53:19.327Z,8.27
2022-12-03T00:55:51.678Z,9.80
2022-12-03T00:58:20.750Z,10.50
2022-12-03T01:00:49.300Z,7.60
2022-12-03T01:03:18.199Z,7.97
2022-12-03T01:05:46.804Z,10.85
2022-12-03T01:08:15.965Z,7.27
2022-12-03T01:10:44.778Z,8.13
2022-12-03T01:13:13.569Z,6.57
2022-12-03T01:15:42.297Z,8.45
2022-12-03T01:18:11.306Z,8.55
2022-12-03T01:20:39.902Z,8.23
2022-12-03T01:23:08.798Z,6.22
2022-12-03T01:25:37.740Z,6.97
2022-12-03T01:28:06.862Z,7.10
2022-12-03T01:30:55.417Z,7.32
2022-12-03T01:33:24.185Z,5.50
2022-12-03T01:35:52.785Z,5.65
2022-12-03T01:38:23.273Z,5.50
2022-12-03T01:40:52.377Z,6.45
2022-12-03T01:43:21.894Z,6.22
2022-12-03T01:45:50.690Z,5.20
2022-12-03T01:48:19.463Z,6.30
2022-12-03T01:50:48.342Z,5.57
2022-12-03T01:53:19.857Z,5.37
2022-12-03T01:55:49.175Z,6.65
2022-12-03T01:58:22.457Z,7.10
2022-12-03T02:00:51.874Z,6.20
2022-12-03T02:03:26.570Z,5.60
2022-12-03T02:05:55.831Z,5.30
2022-12-03T02:08:42.732Z,5.30
2022-12-03T02:11:26.605Z,4.53
2022-12-03T02:14:00.817Z,4.97
2022-12-03T02:16:30.844Z,6.38
2022-12-03T02:19:00.043Z,5.35
2022-12-03T02:21:48.872Z,4.10
2022-12-03T02:24:37.018Z,4.60
2022-12-03T02:27:05.936Z,6.00
2022-12-03T02:29:34.701Z,5.78
2022-12-03T02:32:03.722Z,4.65
2022-12-03T02:34:44.476Z,4.90
2022-12-03T02:37:18.552Z,7.07
2022-12-03T02:39:53.209Z,6.32
2022-12-03T02:42:38.950Z,5.50
2022-12-03T02:45:31.979Z,5.82
2022-12-03T02:48:08.345Z,5.75
2022-12-03T02:50:45.042Z,5.65
2022-12-03T02:53:19.093Z,4.72
2022-12-03T02:55:50.100Z,6.45
2022-12-03T02:58:20.339Z,6.68
2022-12-03T03:00:50.386Z,7.43
2022-12-03T03:03:21.534Z,10.05
2022-12-03T03:05:51.904Z,7.95
2022-12-03T03:08:21.823Z,11.23
2022-12-03T03:10:51.271Z,9.27
2022-12-03T03:13:22.001Z,9.60
2022-12-03T03:15:50.770Z,8.15
2022-12-03T03:18:19.848Z,10.63
2022-12-03T03:20:49.135Z,10.35
2022-12-03T03:23:23.693Z,8.60
2022-12-03T03:26:04.588Z,7.97
2022-12-03T03:28:35.702Z,8.43
2022-12-03T03:31:08.098Z,9.47
2022-12-03T03:33:40.518Z,8.70
2022-12-03T03:36:10.411Z,7.57
2022-12-03T03:38:40.603Z,8.53
2022-12-03T03:41:11.179Z,7.90
2022-12-03T03:43:43.108Z,9.95
2022-12-03T03:46:13.255Z,7.53
2022-12-03T03:48:43.665Z,7.55
2022-12-03T03:51:14.080Z,7.47
2022-12-03T03:53:45.553Z,6.63
2022-12-03T03:56:15.999Z,10.63
2022-12-03T03:58:45.056Z,6.60
2022-12-03T04:01:15.346Z,7.70
2022-12-03T04:03:45.041Z,8.15
2022-12-03T04:06:13.778Z,6.30
2022-12-03T04:08:42.654Z,10.60
2022-12-03T04:11:30.004Z,6.03
2022-12-03T04:13:59.126Z,7.35
2022-12-03T04:16:27.846Z,7.85
2022-12-03T04:18:56.845Z,8.48
2022-12-03T04:21:43.790Z,8.65
2022-12-03T04:24:13.472Z,10.60
2022-12-03T04:27:00.352Z,10.13
2022-12-03T04:29:29.519Z,6.25
2022-12-03T04:32:17.016Z,5.85
2022-12-03T04:35:04.820Z,6.95
2022-12-03T04:37:33.751Z,8.32
2022-12-03T04:40:02.585Z,8.35
2022-12-03T04:42:32.741Z,8.73
2022-12-03T04:45:01.586Z,9.20
2022-12-03T04:47:31.539Z,9.85
2022-12-03T04:50:02.466Z,9.13
2022-12-03T04:52:31.116Z,10.15
2022-12-03T04:55:00.517Z,8.95
2022-12-03T04:57:29.390Z,9.98
2022-12-03T04:59:58.446Z,8.20
2022-12-03T05:02:27.419Z,9.20
2022-12-03T05:04:56.806Z,9.70
2022-12-03T05:07:25.625Z,10.75
2022-12-03T05:09:54.975Z,8.32
2022-12-03T05:12:23.593Z,8.43
2022-12-03T05:14:53.275Z,8.30
2022-12-03T05:17:22.206Z,9.23
2022-12-03T05:20:09.345Z,9.07
2022-12-03T05:22:38.188Z,9.50
2022-12-03T05:25:07.837Z,7.65
2022-12-03T05:27:36.797Z,9.23
2022-12-03T05:30:06.079Z,8.07
2022-12-03T05:32:34.970Z,8.60
2022-12-03T05:35:03.612Z,8.65
2022-12-03T05:37:32.419Z,7.10
2022-12-03T05:40:01.003Z,8.90
2022-12-03T05:42:48.345Z,8.80
2022-12-03T05:45:17.315Z,6.85
2022-12-03T05:47:46.018Z,5.75
2022-12-03T05:50:14.957Z,6.05
2022-12-03T05:52:43.991Z,5.65
2022-12-03T05:55:13.641Z,6.03
2022-12-03T05:57:42.463Z,5.18
2022-12-03T06:00:16.166Z,5.00
2022-12-03T06:02:45.838Z,4.95
2022-12-03T06:05:16.496Z,4.93
2022-12-03T06:07:45.813Z,5.25
2022-12-03T06:10:17.673Z,3.92
2022-12-03T06:12:46.556Z,5.80
2022-12-03T06:15:16.083Z,5.80
2022-12-03T06:17:45.763Z,5.40
2022-12-03T06:20:17.667Z,5.07
2022-12-03T06:22:47.126Z,6.53
2022-12-03T06:25:16.924Z,5.70
2022-12-03T06:27:46.332Z,7.68
2022-12-03T06:30:15.768Z,5.15
2022-12-03T06:32:44.741Z,6.20
2022-12-03T06:35:22.379Z,4.18
2022-12-03T06:37:51.418Z,6.55
2022-12-03T06:40:20.162Z,4.55
2022-12-03T06:42:49.143Z,5.32
2022-12-03T06:45:17.794Z,5.32
2022-12-03T06:47:46.717Z,5.03
2022-12-03T06:50:15.952Z,4.78
2022-12-03T06:52:44.762Z,4.75
2022-12-03T06:55:14.770Z,6.35
2022-12-03T06:57:43.711Z,6.85
2022-12-03T07:00:13.526Z,5.50
2022-12-03T07:02:42.645Z,4.60
2022-12-03T07:05:15.114Z,5.03
2022-12-03T07:07:43.920Z,6.03
2022-12-03T07:10:13.087Z,5.32
2022-12-03T07:12:41.988Z,6.55
2022-12-03T07:15:11.565Z,5.38
2022-12-03T07:17:40.855Z,5.50
2022-12-03T07:20:10.456Z,4.40
2022-12-03T07:22:39.259Z,5.77
2022-12-03T07:25:08.535Z,4.13
2022-12-03T07:27:37.356Z,5.68
2022-12-03T07:30:08.804Z,5.85
2022-12-03T07:32:37.588Z,3.85
2022-12-03T07:35:08.385Z,4.80
2022-12-03T07:37:38.473Z,6.00
2022-12-03T07:40:07.959Z,6.03
2022-12-03T07:42:37.244Z,6.63
2022-12-03T07:45:06.539Z,6.60
2022-12-03T07:47:36.263Z,7.28
2022-12-03T07:50:05.909Z,6.40
2022-12-03T07:52:35.091Z,6.72
2022-12-03T07:55:03.713Z,6.32
2022-12-03T07:57:32.596Z,7.43
2022-12-03T08:00:01.370Z,10.32
2022-12-03T08:02:30.196Z,9.18
2022-12-03T08:04:59.077Z,7.32
2022-12-03T08:07:28.139Z,8.32
2022-12-03T08:09:57.476Z,6.93
2022-12-03T08:12:41.149Z,5.38
2022-12-03T08:15:20.187Z,7.63
2022-12-03T08:17:55.859Z,9.85
2022-12-03T08:20:45.314Z,8.07
2022-12-03T08:23:24.087Z,8.90
2022-12-03T08:25:54.520Z,6.97
2022-12-03T08:28:27.740Z,7.67
2022-12-03T08:31:21.584Z,9.20
2022-12-03T08:33:52.585Z,9.07
2022-12-03T08:36:25.716Z,7.53
2022-12-03T08:38:57.950Z,9.95
2022-12-03T08:41:45.441Z,7.20
2022-12-03T08:44:31.298Z,5.93
2022-12-03T08:47:14.913Z,6.07
2022-12-03T08:49:47.684Z,4.32
2022-12-03T08:52:27.955Z,5.07
2022-12-03T08:54:57.981Z,4.72
2022-12-03T08:57:30.859Z,6.05
2022-12-03T09:00:25.656Z,5.75
2022-12-03T09:02:59.704Z,5.25
2022-12-03T09:05:35.474Z,5.53
2022-12-03T09:08:04.225Z,5.55
2022-12-03T09:10:32.906Z,6.05
2022-12-03T09:13:01.751Z,8.13
2022-12-03T09:15:30.318Z,7.68
2022-12-03T09:17:59.297Z,7.10
2022-12-03T09:20:28.390Z,7.68
2022-12-03T09:22:57.088Z,6.32
2022-12-03T09:25:26.145Z,5.80
2022-12-03T09:27:55.366Z,5.18
2022-12-03T09:30:24.031Z,4.82
2022-12-03T09:32:52.762Z,5.55
2022-12-03T09:35:21.452Z,5.40
2022-12-03T09:37:50.389Z,4.57
2022-12-03T09:40:19.314Z,5.55
2022-12-03T09:42:48.653Z,6.05
2022-12-03T09:45:17.890Z,5.68
2022-12-03T09:47:49.162Z,5.20
2022-12-03T09:50:22.844Z,6.55
2022-12-03T09:52:53.172Z,5.97
2022-12-03T09:55:27.763Z,5.68
2022-12-03T09:57:58.711Z,5.32
2022-12-03T10:00:47.924Z,6.03
2022-12-03T10:03:22.118Z,4.80
2022-12-03T10:05:55.971Z,5.65
2022-12-03T10:08:30.791Z,5.07
2022-12-03T10:11:01.586Z,4.90
2022-12-03T10:13:32.653Z,5.00
2022-12-03T10:16:02.281Z,6.13
2022-12-03T10:18:38.290Z,5.23
2022-12-03T10:21:36.163Z,6.50
2022-12-03T10:24:27.685Z,5.13
2022-12-03T10:26:59.273Z,6.78
2022-12-03T10:29:34.060Z,7.53
2022-12-03T10:32:09.125Z,7.15
2022-12-03T10:34:40.654Z,6.68
2022-12-03T10:37:12.204Z,9.67
2022-12-03T10:40:03.972Z,6.78
2022-12-03T10:42:36.988Z,7.55
2022-12-03T10:45:16.013Z,7.90
2022-12-03T10:48:13.769Z,8.20
2022-12-03T10:51:15.522Z,9.50
2022-12-03T10:53:44.641Z,10.18
2022-12-03T10:56:27.034Z,11.95
2022-12-03T10:58:57.074Z,12.35
2022-12-03T11:01:27.939Z,10.23
2022-12-03T11:04:03.828Z,11.18
2022-12-03T11:06:36.794Z,9.25
2022-12-03T11:09:09.269Z,9.48
2022-12-03T11:11:38.380Z,9.52
2022-12-03T11:14:07.320Z,8.20
2022-12-03T11:16:56.681Z,8.45
2022-12-03T11:19:48.008Z,8.82
2022-12-03T11:22:29.245Z,10.30
2022-12-03T11:25:28.697Z,10.30
2022-12-03T11:28:16.424Z,9.85
2022-12-03T11:31:02.081Z,9.98
2022-12-03T11:33:37.450Z,9.48
2022-12-03T11:36:09.388Z,11.07
2022-12-03T11:38:52.931Z,14.73
2022-12-03T11:41:34.484Z,11.47
2022-12-03T11:44:31.251Z,10.98
2022-12-03T11:47:02.142Z,11.90
2022-12-03T11:49:47.525Z,11.73
2022-12-03T11:52:40.962Z,12.52
2022-12-03T11:55:27.545Z,11.35
2022-12-03T11:58:05.718Z,11.27
2022-12-03T12:00:34.916Z,12.90
2022-12-03T12:03:32.883Z,13.50
2022-12-03T12:06:08.443Z,10.73
2022-12-03T12:08:43.363Z,11.00
2022-12-03T12:11:23.025Z,11.25
2022-12-03T12:13:55.986Z,13.57
2022-12-03T12:16:54.543Z,11.45
2022-12-03T12:19:39.704Z,11.65
2022-12-03T12:22:28.830Z,10.90
2022-12-03T12:25:26.622Z,11.30
2022-12-03T12:27:56.119Z,8.98
2022-12-03T12:30:24.989Z,10.30
2022-12-03T12:33:13.786Z,12.23
2022-12-03T12:35:43.349Z,10.13
2022-12-03T12:38:18.459Z,13.70
2022-12-03T12:40:50.519Z,9.60
2022-12-03T12:43:24.744Z,11.05
2022-12-03T12:45:56.429Z,12.37
2022-12-03T12:48:26.951Z,13.00
2022-12-03T12:51:12.636Z,13.38
2022-12-03T12:53:46.115Z,13.73
2022-12-03T12:56:32.744Z,13.35
2022-12-03T12:59:12.177Z,14.07
2022-12-03T13:01:42.639Z,13.25
2022-12-03T13:04:17.035Z,11.90
2022-12-03T13:06:47.994Z,12.93
2022-12-03T13:09:19.914Z,13.80
2022-12-03T13:11:54.707Z,12.68
2022-12-03T13:14:32.322Z,13.90
2022-12-03T13:17:03.287Z,12.90
2022-12-03T13:19:46.683Z,13.60
2022-12-03T13:22:20.897Z,12.47
2022-12-03T13:24:51.970Z,12.55
2022-12-03T13:27:21.155Z,11.25
2022-12-03T13:30:03.106Z,11.82
2022-12-03T13:32:38.181Z,12.13
2022-12-03T13:35:25.832Z,14.73
2022-12-03T13:37:55.165Z,12.75
2022-12-03T13:40:32.811Z,15.35
2022-12-03T13:43:05.271Z,16.07
2022-12-03T13:45:38.693Z,15.75
2022-12-03T13:48:32.322Z,14.38
2022-12-03T13:51:14.698Z,14.82
2022-12-03T13:53:44.206Z,29.17
2022-12-03T13:56:42.223Z,44.95
2022-12-03T13:59:11.273Z,35.97
2022-12-03T14:01:40.249Z,24.15
2022-12-03T14:04:09.289Z,27.30
2022-12-03T14:06:38.544Z,47.38
2022-12-03T14:09:07.788Z,36.10
2022-12-03T14:11:54.938Z,45.15
2022-12-03T14:14:23.814Z,60.77
2022-12-03T14:16:59.843Z,64.45
2022-12-03T14:19:29.395Z,56.22
2022-12-03T14:21:58.129Z,51.85
2022-12-03T14:24:27.445Z,45.42
2022-12-03T14:26:56.306Z,42.17
2022-12-03T14:29:25.282Z,44.40
2022-12-03T14:31:54.286Z,40.28
2022-12-03T14:34:23.286Z,32.40
2022-12-03T14:36:52.396Z,30.42
2022-12-03T14:39:21.305Z,28.35
2022-12-03T14:42:08.338Z,27.38
2022-12-03T14:44:37.356Z,28.15
2022-12-03T14:47:06.285Z,30.45
2022-12-03T14:49:35.191Z,30.92
2022-12-03T14:52:03.804Z,30.40
2022-12-03T14:54:38.533Z,30.95
2022-12-03T14:57:07.530Z,26.30
2022-12-03T14:59:36.115Z,26.93
2022-12-03T15:02:10.232Z,22.35
2022-12-03T15:04:40.164Z,22.25
2022-12-03T15:07:10.060Z,24.27
2022-12-03T15:09:41.279Z,29.85
2022-12-03T15:12:12.397Z,30.13
2022-12-03T15:14:42.514Z,28.20
2022-12-03T15:17:11.452Z,27.23
2022-12-03T15:19:40.138Z,32.42
2022-12-03T15:22:08.859Z,33.80
2022-12-03T15:24:38.092Z,25.08
2022-12-03T15:27:06.765Z,25.95
2022-12-03T15:29:35.414Z,29.25
2022-12-03T15:32:04.293Z,28.00
2022-12-03T15:34:32.931Z,26.00
2022-12-03T15:37:01.705Z,25.58
2022-12-03T15:39:35.733Z,22.27
2022-12-03T15:42:06.109Z,20.65
2022-12-03T15:44:35.006Z,22.48
2022-12-03T15:47:05.034Z,21.13
2022-12-03T15:49:36.713Z,23.50
2022-12-03T15:52:05.805Z,20.48
2022-12-03T15:54:35.433Z,20.40
2022-12-03T15:57:04.335Z,21.40
2022-12-03T15:59:33.265Z,19.95
2022-12-03T16:02:02.068Z,19.83
2022-12-03T16:04:30.877Z,17.75
2022-12-03T16:06:59.798Z,17.60
2022-12-03T16:09:28.561Z,18.30
2022-12-03T16:11:57.917Z,16.67
2022-12-03T16:14:28.444Z,18.75
2022-12-03T16:17:03.778Z,19.63
2022-12-03T16:19:32.757Z,15.67
2022-12-03T16:22:02.627Z,14.00
2022-12-03T16:24:31.575Z,14.27
2022-12-03T16:27:00.311Z,18.20
2022-12-03T16:29:29.221Z,14.25
2022-12-03T16:31:57.900Z,13.40
2022-12-03T16:34:39.517Z,13.83
2022-12-03T16:37:12.467Z,14.23
2022-12-03T16:39:49.494Z,15.70
2022-12-03T16:42:20.051Z,14.73
2022-12-03T16:45:16.075Z,11.43
2022-12-03T16:47:48.246Z,12.80
2022-12-03T16:50:27.594Z,13.30
2022-12-03T16:52:58.924Z,13.18
2022-12-03T16:55:28.566Z,16.02
2022-12-03T16:57:57.378Z,15.52
2022-12-03T17:00:30.375Z,14.93
2022-12-03T17:02:59.340Z,16.02
2022-12-03T17:05:27.979Z,13.48
2022-12-03T17:08:05.865Z,14.00
2022-12-03T17:10:43.762Z,14.40
2022-12-03T17:13:12.666Z,11.40
2022-12-03T17:15:42.171Z,12.85
2022-12-03T17:18:11.263Z,9.77
2022-12-03T17:20:40.232Z,11.43
2022-12-03T17:23:09.283Z,8.63
2022-12-03T17:25:38.110Z,12.63
2022-12-03T17:28:06.944Z,13.00
2022-12-03T17:30:35.719Z,11.68
2022-12-03T17:33:04.746Z,11.32
2022-12-03T17:35:33.831Z,12.07
2022-12-03T17:38:05.735Z,12.73
2022-12-03T17:40:36.065Z,13.20
2022-12-03T17:43:04.717Z,12.65
2022-12-03T17:45:33.670Z,15.13
2022-12-03T17:48:02.639Z,14.40
2022-12-03T17:50:31.610Z,15.55
2022-12-03T17:53:00.471Z,14.05
2022-12-03T17:55:37.275Z,8.67
2022-12-03T17:58:14.314Z,10.90
2022-12-03T18:00:45.594Z,8.90
2022-12-03T18:03:17.653Z,9.23
2022-12-03T18:05:46.595Z,8.23
2022-12-03T18:08:15.443Z,8.88
2022-12-03T18:10:44.243Z,9.23
2022-12-03T18:13:17.236Z,9.40
2022-12-03T18:15:51.721Z,7.88
2022-12-03T18:18:21.001Z,8.40
2022-12-03T18:20:49.955Z,8.13
2022-12-03T18:23:18.920Z,9.25
2022-12-03T18:25:48.164Z,10.10
2022-12-03T18:28:17.145Z,9.75
2022-12-03T18:30:52.633Z,7.40
2022-12-03T18:33:24.155Z,8.65
2022-12-03T18:35:58.682Z,7.30
2022-12-03T18:38:32.034Z,9.05
2022-12-03T18:41:01.423Z,8.57
2022-12-03T18:43:35.858Z,8.13
2022-12-03T18:46:31.145Z,7.60
2022-12-03T18:49:02.555Z,8.88
2022-12-03T18:51:31.854Z,8.30
2022-12-03T18:54:00.411Z,7.90
2022-12-03T18:56:29.219Z,6.68
2022-12-03T18:58:57.857Z,8.20
2022-12-03T19:01:30.154Z,8.68
2022-12-03T19:03:59.150Z,6.65
2022-12-03T19:06:29.885Z,6.82
2022-12-03T19:08:59.294Z,6.82
2022-12-03T19:11:27.978Z,7.20
2022-12-03T19:13:58.242Z,7.72
2022-12-03T19:16:28.893Z,6.87
2022-12-03T19:18:59.504Z,6.68
2022-12-03T19:21:33.543Z,8.57
2022-12-03T19:24:23.850Z,6.93
2022-12-03T19:26:55.999Z,7.57
2022-12-03T19:29:25.742Z,9.07
2022-12-03T19:31:54.511Z,7.93
2022-12-03T19:34:23.546Z,6.38
2022-12-03T19:36:52.253Z,6.80
2022-12-03T19:39:26.371Z,5.63
2022-12-03T19:41:55.216Z,6.15
2022-12-03T19:44:23.811Z,5.90
2022-12-03T19:46:53.759Z,6.75
2022-12-03T19:49:22.620Z,5.43
2022-12-03T19:51:51.553Z,4.78
2022-12-03T19:54:20.275Z,4.85
2022-12-03T19:56:51.749Z,5.00
2022-12-03T19:59:21.244Z,4.65
2022-12-03T20:01:50.374Z,4.82
2022-12-03T20:04:21.205Z,3.88
2022-12-03T20:06:50.169Z,4.47
2022-12-03T20:09:18.977Z,6.38
2022-12-03T20:11:51.127Z,5.45
2022-12-03T20:14:20.127Z,3.13
2022-12-03T20:16:49.959Z,3.67
2022-12-03T20:19:19.451Z,5.23
2022-12-03T20:21:48.194Z,4.03
2022-12-03T20:24:18.796Z,3.42
2022-12-03T20:26:49.283Z,4.72
2022-12-03T20:29:18.882Z,4.70
2022-12-03T20:31:47.529Z,4.03
2022-12-03T20:34:16.367Z,4.65
2022-12-03T20:36:46.347Z,3.80
2022-12-03T20:39:15.322Z,4.80
2022-12-03T20:41:44.021Z,5.10
2022-12-03T20:44:14.801Z,5.07
2022-12-03T20:46:43.770Z,5.00
2022-12-03T20:49:12.525Z,3.97
2022-12-03T20:51:43.304Z,3.70
2022-12-03T20:54:11.901Z,4.18
2022-12-03T20:56:40.685Z,3.67
2022-12-03T20:59:13.028Z,3.95
2022-12-03T21:01:42.879Z,4.30
2022-12-03T21:04:14.298Z,2.97
2022-12-03T21:06:43.487Z,4.00
2022-12-03T21:09:12.886Z,2.73
2022-12-03T21:11:43.273Z,3.00
2022-12-03T21:14:12.568Z,2.83
2022-12-03T21:17:07.113Z,2.45
2022-12-03T21:19:32.305Z,3.50
2022-12-03T21:22:01.095Z,3.25
2022-12-03T21:24:30.852Z,2.80
2022-12-03T21:26:59.683Z,3.33
2022-12-03T21:29:28.688Z,5.18
2022-12-03T21:31:57.413Z,3.10
2022-12-03T21:34:28.115Z,3.33
2022-12-03T21:37:01.662Z,3.20
2022-12-03T21:39:30.439Z,2.42
2022-12-03T21:42:18.673Z,2.78
2022-12-03T21:44:48.255Z,2.53
2022-12-03T21:47:16.995Z,2.58
2022-12-03T21:49:45.822Z,2.72
2022-12-03T21:52:14.433Z,2.33
2022-12-03T21:54:43.300Z,2.15
2022-12-03T21:57:13.267Z,3.10
2022-12-03T21:59:42.321Z,2.40
2022-12-03T22:02:11.821Z,2.50
2022-12-03T22:04:41.274Z,4.63
2022-12-03T22:07:10.728Z,2.47
2022-12-03T22:09:39.826Z,4.33
2022-12-03T22:12:08.600Z,2.75
2022-12-03T22:14:38.334Z,2.50
2022-12-03T22:17:07.104Z,2.72
2022-12-03T22:19:36.577Z,2.63
2022-12-03T22:22:05.302Z,2.25
2022-12-03T22:24:34.141Z,2.20
2022-12-03T22:27:03.012Z,2.53
2022-12-03T22:29:32.392Z,2.20
2022-12-03T22:32:01.080Z,2.40
2022-12-03T22:34:29.933Z,2.30
2022-12-03T22:36:58.509Z,2.50
2022-12-03T22:39:27.508Z,2.00
2022-12-03T22:41:56.193Z,2.70
2022-12-03T22:44:25.219Z,2.28
2022-12-03T22:46:53.860Z,2.50
2022-12-03T22:49:22.733Z,2.17
2022-12-03T22:51:51.418Z,1.98
2022-12-03T22:54:23.903Z,2.57
2022-12-03T22:56:53.188Z,2.70
2022-12-03T22:59:21.868Z,2.15
2022-12-03T23:01:50.824Z,2.40
2022-12-03T23:04:19.554Z,1.65
2022-12-03T23:06:48.728Z,1.80
2022-12-03T23:09:17.531Z,1.83
2022-12-03T23:11:46.857Z,2.25
2022-12-03T23:14:15.591Z,1.73
2022-12-03T23:16:44.447Z,1.50
2022-12-03T23:19:13.368Z,1.67
2022-12-03T23:21:42.612Z,2.30
2022-12-03T23:24:11.665Z,2.25
2022-12-03T23:26:40.625Z,2.60
2022-12-03T23:29:09.448Z,1.33
2022-12-03T23:31:38.350Z,1.80
2022-12-03T23:34:07.598Z,1.98
2022-12-03T23:36:36.781Z,1.83
2022-12-03T23:39:05.510Z,1.75
2022-12-03T23:41:34.479Z,1.45
2022-12-03T23:44:03.227Z,2.78
2022-12-03T23:46:32.095Z,1.67
2022-12-03T23:49:01.149Z,1.00
2022-12-03T23:51:30.524Z,1.40
2022-12-03T23:53:59.200Z,1.10
2022-12-03T23:56:30.826Z,1.48
2022-12-03T23:59:00.217Z,1.90
